Station: Paraburdoo  

  Atmospheric Gas Attenuation - ITU Rec 676-11   ----------------- dB/100km -----------------
Date Time Temp RH % AH g/m3 Dew Point Wind Direction Speed kph Gust kph Barometer mB Rainfall Since 9am 24GHz 47GHz 76GHz 122GHz 134GHz 241GHz
08/05 09:20 21.5 28 5.28 2.2 30 37 1020.7 0 12.3 19.4 25.1 65.3 52.4 177.9
08/05 09:10 21.1 27 4.97 1.4 39 46 1020.7 0 11.7 19.1 24.3 62.9 49.4 167.3
08/05 09:00 20.7 28 5.04 1.6 35 50 1020.7 0 11.8 19.3 24.6 63.8 50.4 170.7
08/05 08:50 20.7 28 5.04 1.6 30 35 1020.7 0 11.8 19.3 24.6 63.8 50.4 170.7
08/05 08:40 20.3 28 4.92 1.2 37 43 1020.7 0 11.6 19.2 24.3 63.1 49.3 167.0
08/05 08:30 20.4 28 4.95 1.3 32 43 1020.8 0 11.6 19.2 24.4 63.3 49.6 168.0
08/05 08:20 19.9 28 4.81 0.9 37 43 1020.9 0 11.4 19.2 24.1 62.5 48.4 163.8
08/05 08:10 19.7 29 4.92 1.2 28 37 1020.9 0 11.6 19.3 24.5 63.6 49.7 168.3
08/05 08:00 19.4 29 4.84 0.9 30 39 1020.9 0 11.4 19.3 24.4 63.1 49.0 165.9
08/05 07:50 19.3 29 4.81 0.8 32 37 1020.9 0 11.4 19.3 24.3 63.0 48.8 164.9
08/05 07:40 19.3 29 4.81 0.8 26 30 1020.9 0 11.4 19.3 24.3 63.0 48.8 164.9
08/05 07:30 19 29 4.73 0.6 26 35 1020.9 0 11.2 19.2 24.1 62.5 48.1 162.5
08/05 07:20 19 29 4.73 0.6 24 28 1020.8 0 11.2 19.2 24.1 62.5 48.1 162.5
08/05 07:10 18.8 29 4.67 0.4 26 30 1020.7 0 11.1 19.2 24.0 62.1 47.6 160.6
08/05 07:00 18.6 29 4.62 0.2 22 32 1020.8 0 11.0 19.2 23.9 61.8 47.2 159.2
08/05 06:50 18.6 29 4.62 0.2 24 28 1020.9 0 11.0 19.2 23.9 61.8 47.2 159.2
08/05 06:40 18.7 29 4.64 0.3 28 39 1020.7 0 11.0 19.2 23.9 61.9 47.3 159.7
08/05 06:30 18.5 29 4.59 0.2 24 33 1020.5 0 10.9 19.1 23.8 61.6 46.9 158.2
08/05 06:20 18.6 29 4.62 0.2 24 28 1020.4 0 11.0 19.2 23.9 61.8 47.1 159.1
08/05 06:10 18.6 29 4.62 0.2 20 26 1020.4 0 11.0 19.2 23.9 61.8 47.1 159.1
08/05 06:00 18.8 28 4.51 -0.1 24 35 1020.2 0 10.8 19.0 23.4 60.7 45.9 154.6
08/05 05:50 18.7 29 4.64 0.3 24 28 1020.2 0 11.0 19.2 23.9 61.9 47.3 159.6
08/05 05:40 18.8 29 4.67 0.4 24 28 1020.1 0 11.1 19.2 24.0 62.1 47.5 160.5
08/05 05:30 18.9 28 4.54 0 28 37 1019.9 0 10.8 19.0 23.5 60.9 46.1 155.5
08/05 05:20 19 28 4.56 0.1 32 41 1019.8 0 10.9 19.0 23.5 61.0 46.3 156.0
08/05 05:10 19 28 4.56 0.1 32 35 1019.7 0 10.9 19.0 23.5 60.9 46.2 156.0
08/05 05:00 19.1 28 4.59 0.2 30 43 1019.6 0 10.9 19.0 23.6 61.1 46.5 156.9
08/05 04:50 19.1 27 4.43 -0.3 28 33 1019.8 0 10.6 18.8 23.1 59.8 44.8 151.0
08/05 04:40 19.2 27 4.45 -0.2 26 30 1019.8 0 10.6 18.8 23.1 59.9 45.0 151.6
08/05 04:30 19.4 27 4.5 -0.1 28 39 1019.6 0 10.7 18.8 23.2 60.1 45.4 153.0
08/05 04:20 19.4 26 4.34 -0.6 26 32 1019.6 0 10.4 18.6 22.7 58.8 43.7 147.1
08/05 04:10 19.5 26 4.36 -0.5 28 35 1019.5 0 10.4 18.6 22.8 58.9 43.9 147.7
08/05 04:00 19.7 26 4.41 -0.3 28 41 1019.4 0 10.5 18.6 22.9 59.1 44.3 149.1
08/05 03:50 19.7 26 4.41 -0.3 22 28 1019.5 0 10.5 18.6 22.9 59.2 44.3 149.2
08/05 03:40 19.9 25 4.29 -0.7 20 24 1019.5 0 10.3 18.4 22.4 58.0 42.9 144.4
08/05 03:30 20 25 4.32 -0.6 22 32 1019.4 0 10.3 18.5 22.5 58.2 43.2 145.3
08/05 03:20 20 25 4.32 -0.6 22 28 1019.6 0 10.3 18.5 22.5 58.2 43.2 145.4
08/05 03:10 20.1 25 4.35 -0.5 24 30 1019.5 0 10.4 18.5 22.6 58.4 43.4 146.3
08/05 03:00 20.3 25 4.4 -0.3 24 35 1019.4 0 10.5 18.5 22.7 58.6 43.9 147.7
08/05 02:50 20.3 25 4.4 -0.3 26 32 1019.5 0 10.5 18.5 22.7 58.6 43.9 147.7
08/05 02:40 20.3 24 4.22 -0.9 22 26 1019.5 0 10.1 18.3 22.1 57.1 42.0 141.2
08/05 02:30 20.5 24 4.27 -0.7 22 32 1019.5 0 10.2 18.3 22.2 57.4 42.4 142.7
08/05 02:20 20.5 24 4.27 -0.7 19 24 1019.6 0 10.2 18.3 22.2 57.4 42.4 142.7
08/05 02:10 20.6 24 4.3 -0.7 30 35 1019.6 0 10.3 18.3 22.3 57.6 42.7 143.6
08/05 02:00 20.7 23 4.14 -1.1 24 35 1019.7 0 9.9 18.1 21.8 56.2 41.0 137.7
08/05 01:50 20.9 23 4.19 -1 26 32 1019.9 0 10.0 18.1 21.9 56.5 41.4 139.2
08/05 01:40 20.9 23 4.19 -1 28 37 1019.8 0 10.0 18.1 21.9 56.5 41.4 139.2
08/05 01:30 21 23 4.21 -0.9 26 39 1019.8 0 10.1 18.1 21.9 56.6 41.6 139.7
08/05 01:20 20.9 23 4.19 -1 24 28 1019.9 0 10.0 18.1 21.9 56.5 41.4 139.2
08/05 01:10 21.2 23 4.26 -0.7 26 37 1019.8 0 10.2 18.2 22.0 56.9 42.0 141.2
08/05 01:00 21.4 22 4.12 -1.2 30 44 1019.7 0 9.9 18.0 21.5 55.6 40.5 135.8
08/05 00:50 21.4 22 4.12 -1.2 22 30 1019.9 0 9.9 18.0 21.5 55.6 40.5 135.9
08/05 00:40 21.4 22 4.12 -1.2 30 43 1019.9 0 9.9 18.0 21.5 55.6 40.5 135.9
08/05 00:30 21.5 22 4.15 -1.1 24 32 1019.8 0 9.9 18.0 21.6 55.8 40.7 136.8
08/05 00:20 21.6 22 4.17 -1 22 24 1020 0 10.0 18.0 21.6 55.9 40.9 137.3
08/05 00:10 21.7 22 4.2 -0.9 19 24 1019.9 0 10.0 18.0 21.7 56.1 41.1 138.2
08/05 00:00 21.8 22 4.22 -0.8 22 32 1019.8 0 10.1 18.0 21.7 56.2 41.3 138.8
07/05 23:50 22 22 4.27 -0.7 28 30 1019.8 0 10.2 18.0 21.8 56.4 41.7 140.2
07/05 23:40 22.1 22 4.29 -0.6 24 32 1019.8 0 10.2 18.0 21.9 56.5 41.8 140.7
07/05 23:30 22 23 4.46 -0.1 26 35 1019.8 0 10.6 18.3 22.4 58.0 43.6 147.0
07/05 23:20 21.8 23 4.41 -0.2 22 28 1019.9 0 10.5 18.2 22.3 57.7 43.2 145.5
07/05 23:10 22.2 24 4.71 0.7 28 33 1020 0 11.1 18.5 23.1 59.9 46.0 155.6
07/05 23:00 22 25 4.85 1.1 22 30 1019.9 0 11.4 18.8 23.6 61.2 47.6 161.0
07/05 22:50 22.2 25 4.91 1.3 26 30 1020 0 11.5 18.8 23.8 61.6 48.1 162.8
07/05 22:40 22.2 25 4.91 1.3 20 28 1020 0 11.5 18.8 23.8 61.6 48.1 162.8
07/05 22:30 22.3 25 4.94 1.3 22 30 1019.8 0 11.6 18.8 23.8 61.7 48.3 163.7
07/05 22:20 22.4 25 4.96 1.4 24 26 1019.8 0 11.6 18.8 23.8 61.8 48.5 164.2
07/05 22:10 22.6 25 5.02 1.6 24 28 1019.7 0 11.7 18.9 24.0 62.2 49.0 166.0
07/05 22:00 22.8 25 5.08 1.8 26 33 1019.5 0 11.8 18.9 24.1 62.5 49.5 167.7
07/05 21:50 22.8 25 5.08 1.8 20 26 1019.6 0 11.8 18.9 24.1 62.5 49.5 167.8
07/05 21:40 22.8 25 5.08 1.8 22 26 1019.5 0 11.8 18.9 24.1 62.5 49.5 167.7
07/05 21:30 23 25 5.14 1.9 24 35 1019.4 0 11.9 18.9 24.2 62.9 50.0 169.5
07/05 21:20 23.2 25 5.2 2.1 24 30 1019.3 0 12.1 18.9 24.3 63.2 50.4 171.3
07/05 21:10 23.3 25 5.23 2.2 24 28 1019.3 0 12.1 19.0 24.4 63.4 50.7 172.1
07/05 21:00 23.3 25 5.23 2.2 20 30 1019.2 0 12.1 19.0 24.4 63.4 50.7 172.1
07/05 20:50 23.2 25 5.2 2.1 17 19 1019.2 0 12.1 18.9 24.3 63.2 50.4 171.2
07/05 20:40 23.2 24 4.99 1.5 15 17 1019.1 0 11.6 18.7 23.7 61.4 48.3 163.7
07/05 20:30 24 24 5.22 2.2 20 30 1019 0 12.1 18.8 24.2 62.7 50.2 170.3
07/05 20:20 24 24 5.22 2.2 26 33 1018.9 0 12.1 18.8 24.2 62.7 50.1 170.3
07/05 20:10 23.8 24 5.16 2 17 24 1018.8 0 12.0 18.8 24.0 62.4 49.7 168.5
07/05 20:00 24.1 24 5.25 2.3 19 28 1018.6 0 12.1 18.8 24.2 62.9 50.4 171.1
07/05 19:50 24 23 5 1.6 17 20 1018.4 0 11.6 18.5 23.5 60.9 47.9 162.4
07/05 19:40 24.1 23 5.03 1.7 22 24 1018.3 0 11.7 18.5 23.5 61.1 48.1 163.2
07/05 19:30 24.2 23 5.06 1.8 20 26 1018.2 0 11.7 18.5 23.6 61.2 48.4 164.1
07/05 19:20 24.4 23 5.12 1.9 20 24 1018.1 0 11.9 18.6 23.7 61.6 48.9 165.8
07/05 19:10 24.6 23 5.18 2.1 20 24 1017.9 0 12.0 18.6 23.8 61.9 49.3 167.5
07/05 19:00 24.8 23 5.24 2.3 20 32 1017.7 0 12.1 18.6 24.0 62.2 49.8 169.2
07/05 18:50 24.9 23 5.26 2.4 22 26 1017.7 0 12.1 18.6 24.0 62.3 50.0 169.7
07/05 18:40 24.9 23 5.26 2.4 19 24 1017.5 0 12.1 18.6 24.0 62.3 49.9 169.7
07/05 18:30 25 23 5.29 2.4 17 24 1017.3 0 12.2 18.6 24.0 62.4 50.2 170.5
07/05 18:20 25.2 22 5.12 2 19 20 1017.2 0 11.8 18.4 23.5 60.9 48.4 164.1
07/05 18:10 25.5 22 5.21 2.2 22 28 1017.1 0 12.0 18.4 23.7 61.4 49.1 166.7
07/05 18:00 25.5 22 5.21 2.2 20 32 1017 0 12.0 18.4 23.7 61.4 49.1 166.7
07/05 17:50 25.7 22 5.27 2.4 17 20 1016.9 0 12.1 18.5 23.8 61.7 49.5 168.4
07/05 17:40 25.8 22 5.3 2.5 20 24 1016.7 0 12.2 18.5 23.8 61.9 49.8 169.2
07/05 17:30 25.9 22 5.33 2.6 26 37 1016.6 0 12.2 18.5 23.9 62.1 50.0 170.0
07/05 17:20 26.1 21 5.14 2.1 20 24 1016.5 0 11.9 18.2 23.3 60.4 48.0 163.0
07/05 17:10 26.2 21 5.17 2.2 30 35 1016.3 0 11.9 18.2 23.3 60.5 48.2 163.8
07/05 17:00 26.4 21 5.23 2.3 26 33 1016.3 0 12.0 18.3 23.4 60.9 48.7 165.5
07/05 16:50 26.8 21 5.35 2.7 26 28 1016.2 0 12.3 18.3 23.7 61.5 49.7 168.9

Last Refresh: 08-May-2026 11:04:03

Bureau of Meteorology